createdAt,value
2023-02-11T00:01:53.604Z,97140.62
2023-02-11T00:04:21.768Z,97140.84
2023-02-11T00:06:49.893Z,97137.08
2023-02-11T00:09:17.945Z,97138.60
2023-02-11T00:11:45.811Z,97136.77
2023-02-11T00:14:13.659Z,97135.15
2023-02-11T00:16:41.606Z,97133.39
2023-02-11T00:19:09.851Z,97128.23
2023-02-11T00:21:37.834Z,97128.81
2023-02-11T00:24:06.135Z,97122.47
2023-02-11T00:26:35.602Z,97123.15
2023-02-11T00:29:04.157Z,97121.30
2023-02-11T00:31:32.922Z,97119.84
2023-02-11T00:34:01.202Z,97120.35
2023-02-11T00:36:29.947Z,97117.44
2023-02-11T00:38:58.408Z,97111.67
2023-02-11T00:41:26.457Z,97105.98
2023-02-11T00:43:54.527Z,97104.78
2023-02-11T00:46:22.879Z,97102.66
2023-02-11T00:48:57.809Z,97101.33
2023-02-11T00:51:26.199Z,97093.83
2023-02-11T00:53:54.834Z,97091.00
2023-02-11T00:56:24.554Z,97089.30
2023-02-11T00:58:53.557Z,97083.77
2023-02-11T01:01:21.603Z,97079.86
2023-02-11T01:03:49.820Z,97082.16
2023-02-11T01:06:18.023Z,97079.02
2023-02-11T01:08:45.936Z,97080.56
2023-02-11T01:11:15.282Z,97077.42
2023-02-11T01:13:46.965Z,97067.80
2023-02-11T01:16:15.078Z,97063.54
2023-02-11T01:18:44.434Z,97059.03
2023-02-11T01:21:12.535Z,97057.08
2023-02-11T01:23:40.456Z,97051.00
2023-02-11T01:26:08.563Z,97051.98
2023-02-11T01:28:36.952Z,97051.11
2023-02-11T01:31:05.086Z,97048.70
2023-02-11T01:33:33.904Z,97039.77
2023-02-11T01:36:03.342Z,97035.01
2023-02-11T01:38:31.941Z,97034.64
2023-02-11T01:41:01.804Z,97034.02
2023-02-11T01:43:32.915Z,97031.46
2023-02-11T01:46:10.231Z,97028.29
2023-02-11T01:48:41.075Z,97022.74
2023-02-11T01:51:24.085Z,97023.58
2023-02-11T01:54:11.872Z,97023.66
2023-02-11T01:57:01.405Z,97024.39
2023-02-11T01:59:32.288Z,97025.17
2023-02-11T02:02:03.808Z,97029.61
2023-02-11T02:04:34.753Z,97029.83
2023-02-11T02:07:09.085Z,97030.25
2023-02-11T02:09:39.718Z,97024.20
2023-02-11T02:12:07.751Z,97024.91
2023-02-11T02:14:40.493Z,97024.85
2023-02-11T02:17:16.369Z,97020.10
2023-02-11T02:20:03.152Z,97015.17
2023-02-11T02:22:34.110Z,97009.98
2023-02-11T02:25:20.965Z,97006.41
2023-02-11T02:27:51.154Z,97002.19
2023-02-11T02:30:34.523Z,96999.00
2023-02-11T02:33:23.101Z,96992.79
2023-02-11T02:36:00.148Z,96989.89
2023-02-11T02:38:37.957Z,96987.96
2023-02-11T02:41:11.157Z,96986.73
2023-02-11T02:43:44.255Z,96985.32
2023-02-11T02:46:13.924Z,96982.74
2023-02-11T02:48:42.161Z,96984.52
2023-02-11T02:51:19.249Z,96988.02
2023-02-11T02:53:58.438Z,96986.13
2023-02-11T02:56:34.460Z,96992.91
2023-02-11T02:59:05.124Z,96990.40
2023-02-11T03:01:33.384Z,96987.09
2023-02-11T03:04:06.090Z,96981.23
2023-02-11T03:06:39.378Z,96985.16
2023-02-11T03:09:11.516Z,96986.58
2023-02-11T03:11:40.013Z,96987.83
2023-02-11T03:14:10.403Z,96986.91
2023-02-11T03:16:39.445Z,96987.60
2023-02-11T03:19:13.491Z,96981.79
2023-02-11T03:21:42.906Z,96982.73
2023-02-11T03:24:14.658Z,96980.09
2023-02-11T03:26:53.182Z,96980.36
2023-02-11T03:29:36.328Z,96979.67
2023-02-11T03:32:04.332Z,96977.55
2023-02-11T03:34:42.443Z,96977.31
2023-02-11T03:37:14.793Z,96978.21
2023-02-11T03:39:54.789Z,96976.57
2023-02-11T03:42:26.552Z,96975.52
2023-02-11T03:44:58.690Z,96979.96
2023-02-11T03:47:28.092Z,96984.95
2023-02-11T03:49:57.831Z,96977.91
2023-02-11T03:52:26.387Z,96979.52
2023-02-11T03:54:57.356Z,96971.27
2023-02-11T03:57:25.270Z,96963.21
2023-02-11T03:59:57.651Z,96961.21
2023-02-11T04:02:27.828Z,96959.79
2023-02-11T04:04:55.923Z,96955.52
2023-02-11T04:07:24.137Z,96950.89
2023-02-11T04:09:52.063Z,96941.69
2023-02-11T04:12:19.978Z,96931.92
2023-02-11T04:14:48.040Z,96931.94
2023-02-11T04:17:16.213Z,96930.77
2023-02-11T04:19:44.598Z,96930.51
2023-02-11T04:22:12.527Z,96926.34
2023-02-11T04:24:40.353Z,96923.12
2023-02-11T04:27:08.322Z,96920.05
2023-02-11T04:29:36.325Z,96921.81
2023-02-11T04:32:04.649Z,96917.48
2023-02-11T04:34:33.175Z,96916.63
2023-02-11T04:37:01.037Z,96917.44
2023-02-11T04:39:28.959Z,96915.69
2023-02-11T04:41:57.102Z,96912.77
2023-02-11T04:44:25.078Z,96915.80
2023-02-11T04:46:53.291Z,96913.98
2023-02-11T04:49:21.824Z,96913.75
2023-02-11T04:51:49.838Z,96913.14
2023-02-11T04:54:18.210Z,96912.77
2023-02-11T04:56:46.112Z,96916.91
2023-02-11T04:59:14.264Z,96913.77
2023-02-11T05:01:42.261Z,96916.42
2023-02-11T05:04:10.727Z,96916.74
2023-02-11T05:06:39.632Z,96921.33
2023-02-11T05:09:07.705Z,96923.93
2023-02-11T05:11:36.836Z,96917.58
2023-02-11T05:14:05.192Z,96917.78
2023-02-11T05:16:33.340Z,96925.44
2023-02-11T05:19:01.458Z,96921.38
2023-02-11T05:21:29.557Z,96926.41
2023-02-11T05:23:57.485Z,96929.30
2023-02-11T05:26:25.733Z,96922.66
2023-02-11T05:28:53.669Z,96917.19
2023-02-11T05:31:21.530Z,96922.18
2023-02-11T05:33:49.483Z,96923.80
2023-02-11T05:36:17.490Z,96916.88
2023-02-11T05:38:45.441Z,96922.89
2023-02-11T05:41:13.752Z,96917.79
2023-02-11T05:43:41.931Z,96916.83
2023-02-11T05:46:09.925Z,96919.77
2023-02-11T05:48:37.986Z,96918.41
2023-02-11T05:51:06.059Z,96912.05
2023-02-11T05:53:34.248Z,96909.14
2023-02-11T05:56:02.522Z,96911.98
2023-02-11T05:58:30.596Z,96911.64
2023-02-11T06:00:58.683Z,96914.39
2023-02-11T06:03:26.594Z,96910.88
2023-02-11T06:05:55.032Z,96907.54
2023-02-11T06:08:22.914Z,96905.83
2023-02-11T06:10:51.088Z,96907.95
2023-02-11T06:13:19.906Z,96903.33
2023-02-11T06:15:56.003Z,96904.35
2023-02-11T06:18:24.418Z,96902.77
2023-02-11T06:20:52.726Z,96898.91
2023-02-11T06:23:20.654Z,96896.84
2023-02-11T06:25:48.869Z,96898.08
2023-02-11T06:28:17.416Z,96900.29
2023-02-11T06:30:45.419Z,96900.93
2023-02-11T06:33:13.603Z,96901.02
2023-02-11T06:35:41.528Z,96899.80
2023-02-11T06:38:09.436Z,96898.09
2023-02-11T06:40:37.442Z,96898.11
2023-02-11T06:43:05.489Z,96900.97
2023-02-11T06:45:33.417Z,96900.20
2023-02-11T06:48:01.483Z,96903.20
2023-02-11T06:50:29.650Z,96897.52
2023-02-11T06:52:59.143Z,96900.81
2023-02-11T06:55:27.152Z,96903.70
2023-02-11T06:57:55.044Z,96910.66
2023-02-11T07:00:23.106Z,96909.71
2023-02-11T07:02:51.147Z,96910.52
2023-02-11T07:05:19.442Z,96915.00
2023-02-11T07:07:47.412Z,96913.91
2023-02-11T07:10:15.484Z,96911.63
2023-02-11T07:12:43.363Z,96909.76
2023-02-11T07:15:11.336Z,96908.91
2023-02-11T07:17:39.389Z,96909.63
2023-02-11T07:20:07.386Z,96910.61
2023-02-11T07:22:35.471Z,96910.02
2023-02-11T07:25:04.604Z,96909.36
2023-02-11T07:27:32.746Z,96902.69
2023-02-11T07:30:00.712Z,96909.27
2023-02-11T07:32:28.896Z,96905.47
2023-02-11T07:34:56.841Z,96897.88
2023-02-11T07:37:24.942Z,96900.86
2023-02-11T07:39:52.831Z,96899.73
2023-02-11T07:42:20.889Z,96891.20
2023-02-11T07:44:50.513Z,96898.25
2023-02-11T07:47:18.618Z,96899.75
2023-02-11T07:49:46.623Z,96895.41
2023-02-11T07:52:15.453Z,96885.27
2023-02-11T07:54:45.566Z,96882.36
2023-02-11T07:57:13.536Z,96878.36
2023-02-11T07:59:41.734Z,96869.77
2023-02-11T08:02:10.561Z,96856.02
2023-02-11T08:04:38.679Z,96856.80
2023-02-11T08:07:07.060Z,96858.67
2023-02-11T08:09:35.047Z,96844.48
2023-02-11T08:12:03.111Z,96836.19
2023-02-11T08:14:32.868Z,96833.56
2023-02-11T08:17:01.021Z,96825.95
2023-02-11T08:19:29.258Z,96823.55
2023-02-11T08:21:57.656Z,96825.30
2023-02-11T08:24:25.936Z,96826.38
2023-02-11T08:26:53.847Z,96828.67
2023-02-11T08:29:21.835Z,96828.80
2023-02-11T08:31:50.022Z,96820.61
2023-02-11T08:34:22.167Z,96814.22
2023-02-11T08:36:50.366Z,96809.77
2023-02-11T08:39:20.749Z,96798.16
2023-02-11T08:41:50.999Z,96796.67
2023-02-11T08:44:20.474Z,96795.80
2023-02-11T08:46:49.149Z,96800.45
2023-02-11T08:49:17.441Z,96795.77
2023-02-11T08:51:46.114Z,96794.97
2023-02-11T08:54:14.503Z,96800.29
2023-02-11T08:56:42.708Z,96797.39
2023-02-11T08:59:13.115Z,96792.20
2023-02-11T09:01:41.174Z,96793.04
2023-02-11T09:04:10.175Z,96798.11
2023-02-11T09:06:38.266Z,96795.54
2023-02-11T09:09:06.728Z,96796.72
2023-02-11T09:11:35.771Z,96792.77
2023-02-11T09:14:04.455Z,96791.29
2023-02-11T09:16:34.973Z,96790.45
2023-02-11T09:19:04.574Z,96792.45
2023-02-11T09:21:32.863Z,96790.02
2023-02-11T09:24:01.237Z,96786.73
2023-02-11T09:26:30.500Z,96786.59
2023-02-11T09:28:59.024Z,96785.77
2023-02-11T09:31:28.395Z,96778.00
2023-02-11T09:34:01.260Z,96777.46
2023-02-11T09:36:31.237Z,96773.00
2023-02-11T09:39:00.182Z,96776.70
2023-02-11T09:41:47.155Z,96778.79
2023-02-11T09:44:25.888Z,96788.02
2023-02-11T09:47:14.218Z,96785.35
2023-02-11T09:49:42.293Z,96788.70
2023-02-11T09:52:13.350Z,96791.87
2023-02-11T09:54:54.911Z,96783.45
2023-02-11T09:57:28.887Z,96780.04
2023-02-11T09:59:57.997Z,96783.78
2023-02-11T10:02:38.214Z,96783.23
2023-02-11T10:05:14.978Z,96784.45
2023-02-11T10:07:45.942Z,96776.77
2023-02-11T10:10:17.174Z,96767.30
2023-02-11T10:12:51.373Z,96762.68
2023-02-11T10:15:32.405Z,96765.71
2023-02-11T10:18:00.552Z,96772.52
2023-02-11T10:20:31.282Z,96773.61
2023-02-11T10:23:01.427Z,96767.66
2023-02-11T10:25:45.520Z,96769.20
2023-02-11T10:28:16.304Z,96768.10
2023-02-11T10:30:51.023Z,96755.52
2023-02-11T10:33:30.787Z,96736.09
2023-02-11T10:35:59.371Z,96732.77
2023-02-11T10:38:27.841Z,96722.35
2023-02-11T10:40:55.742Z,96715.60
2023-02-11T10:43:26.573Z,96710.77
2023-02-11T10:45:56.178Z,96708.15
2023-02-11T10:48:39.833Z,96702.42
2023-02-11T10:51:12.785Z,96700.98
2023-02-11T10:53:42.370Z,96694.02
2023-02-11T10:56:26.167Z,96695.00
2023-02-11T10:58:56.113Z,96685.02
2023-02-11T11:01:25.152Z,96678.91
2023-02-11T11:03:53.258Z,96670.89
2023-02-11T11:06:31.724Z,96666.06
2023-02-11T11:08:59.687Z,96659.24
2023-02-11T11:11:27.947Z,96651.13
2023-02-11T11:13:59.194Z,96649.27
2023-02-11T11:16:28.564Z,96650.34
2023-02-11T11:19:09.184Z,96642.40
2023-02-11T11:21:37.075Z,96644.35
2023-02-11T11:24:05.440Z,96639.83
2023-02-11T11:26:44.758Z,96640.11
2023-02-11T11:29:20.547Z,96639.89
2023-02-11T11:31:51.288Z,96645.07
2023-02-11T11:34:22.905Z,96641.44
2023-02-11T11:36:51.184Z,96636.05
2023-02-11T11:39:25.023Z,96627.77
2023-02-11T11:41:58.105Z,96621.83
2023-02-11T11:44:33.571Z,96614.46
2023-02-11T11:47:07.772Z,96619.00
2023-02-11T11:49:39.630Z,96620.59
2023-02-11T11:52:19.985Z,96622.07
2023-02-11T11:54:53.621Z,96620.33
2023-02-11T11:57:25.591Z,96616.23
2023-02-11T11:59:53.637Z,96612.61
2023-02-11T12:02:27.508Z,96609.53
2023-02-11T12:05:08.502Z,96605.19
2023-02-11T12:07:52.068Z,96601.80
2023-02-11T12:10:35.309Z,96591.52
2023-02-11T12:13:06.215Z,96586.64
2023-02-11T12:15:57.112Z,96583.30
2023-02-11T12:18:38.274Z,96578.67
2023-02-11T12:21:09.208Z,96570.78
2023-02-11T12:23:44.421Z,96573.67
2023-02-11T12:26:19.905Z,96567.01
2023-02-11T12:28:53.883Z,96570.50
2023-02-11T12:31:27.934Z,96567.03
2023-02-11T12:33:55.990Z,96565.55
2023-02-11T12:36:43.321Z,96568.63
2023-02-11T12:39:23.537Z,96561.42
2023-02-11T12:42:29.808Z,96559.94
2023-02-11T12:45:14.053Z,96563.91
2023-02-11T12:47:49.772Z,96559.44
2023-02-11T12:50:17.659Z,96559.85
2023-02-11T12:53:04.180Z,96554.14
2023-02-11T12:55:38.139Z,96549.79
2023-02-11T12:58:12.735Z,96551.61
2023-02-11T13:00:40.624Z,96550.85
2023-02-11T13:03:15.478Z,96543.39
2023-02-11T13:05:46.966Z,96541.17
2023-02-11T13:08:33.663Z,96533.59
2023-02-11T13:11:03.972Z,96530.02
2023-02-11T13:13:35.810Z,96525.36
2023-02-11T13:16:08.222Z,96523.64
2023-02-11T13:18:44.326Z,96519.27
2023-02-11T13:21:15.722Z,96516.23
2023-02-11T13:23:49.494Z,96509.02
2023-02-11T13:26:17.692Z,96508.65
2023-02-11T13:28:49.742Z,96506.18
2023-02-11T13:31:20.445Z,96505.81
2023-02-11T13:33:50.019Z,96504.92
2023-02-11T13:36:22.275Z,96506.14
2023-02-11T13:38:58.539Z,96506.42
2023-02-11T13:41:31.000Z,96506.77
2023-02-11T13:43:58.991Z,96501.71
2023-02-11T13:46:29.423Z,96504.76
2023-02-11T13:48:58.131Z,96508.09
2023-02-11T13:51:40.075Z,96510.23
2023-02-11T13:54:09.834Z,96499.56
2023-02-11T13:56:44.174Z,96497.33
2023-02-11T13:59:33.580Z,96495.52
2023-02-11T14:02:35.797Z,96489.95
2023-02-11T14:05:22.719Z,96483.02
2023-02-11T14:08:28.350Z,96478.32
2023-02-11T14:10:57.796Z,96468.77
2023-02-11T14:13:30.148Z,96470.27
2023-02-11T14:16:04.435Z,96462.79
2023-02-11T14:18:38.672Z,96466.44
2023-02-11T14:21:18.131Z,96460.52
2023-02-11T14:23:46.989Z,96460.44
2023-02-11T14:26:21.161Z,96457.56
2023-02-11T14:28:52.039Z,96447.27
2023-02-11T14:31:24.012Z,96442.16
2023-02-11T14:33:52.485Z,96436.51
2023-02-11T14:36:43.774Z,96438.05
2023-02-11T14:39:18.423Z,96444.32
2023-02-11T14:41:47.628Z,96446.48
2023-02-11T14:44:34.470Z,96445.36
2023-02-11T14:47:02.738Z,96445.23
2023-02-11T14:49:35.441Z,96441.30
2023-02-11T14:52:17.227Z,96445.68
2023-02-11T14:54:45.965Z,96446.80
2023-02-11T14:57:18.555Z,96451.30
2023-02-11T14:59:59.338Z,96458.52
2023-02-11T15:02:33.264Z,96458.20
2023-02-11T15:05:16.263Z,96463.25
2023-02-11T15:07:46.058Z,96461.16
2023-02-11T15:10:18.641Z,96461.33
2023-02-11T15:12:50.080Z,96458.60
2023-02-11T15:15:18.079Z,96457.56
2023-02-11T15:17:46.178Z,96461.24
2023-02-11T15:20:26.110Z,96463.63
2023-02-11T15:22:59.459Z,96464.13
2023-02-11T15:25:28.413Z,96464.64
2023-02-11T15:27:58.018Z,96459.31
2023-02-11T15:30:28.160Z,96446.27
2023-02-11T15:33:01.043Z,96434.63
2023-02-11T15:35:37.924Z,96423.52
2023-02-11T15:38:05.892Z,96424.21
2023-02-11T15:40:35.669Z,96427.81
2023-02-11T15:43:06.106Z,96426.56
2023-02-11T15:45:37.097Z,96419.35
2023-02-11T15:48:16.001Z,96412.80
2023-02-11T15:50:49.371Z,96414.88
2023-02-11T15:53:23.559Z,96413.14
2023-02-11T15:55:52.965Z,96416.45
2023-02-11T15:58:22.067Z,96419.23
2023-02-11T16:00:52.404Z,96407.05
2023-02-11T16:03:25.727Z,96406.52
2023-02-11T16:05:55.707Z,96412.29
2023-02-11T16:08:24.586Z,96413.09
2023-02-11T16:10:58.822Z,96416.15
2023-02-11T16:13:28.516Z,96415.10
2023-02-11T16:16:02.682Z,96408.36
2023-02-11T16:18:49.377Z,96404.67
2023-02-11T16:21:29.674Z,96412.56
2023-02-11T16:23:58.313Z,96421.30
2023-02-11T16:26:32.135Z,96435.60
2023-02-11T16:29:16.718Z,96440.52
2023-02-11T16:31:47.046Z,96430.61
2023-02-11T16:34:19.936Z,96431.41
2023-02-11T16:36:48.722Z,96436.56
2023-02-11T16:39:17.413Z,96436.45
2023-02-11T16:41:45.367Z,96425.09
2023-02-11T16:44:13.566Z,96424.98
2023-02-11T16:46:41.856Z,96424.09
2023-02-11T16:49:18.433Z,96427.39
2023-02-11T16:51:47.766Z,96428.77
2023-02-11T16:54:16.427Z,96436.03
2023-02-11T16:56:44.710Z,96445.69
2023-02-11T16:59:12.931Z,96445.54
2023-02-11T17:01:42.401Z,96447.88
2023-02-11T17:04:25.194Z,96437.79
2023-02-11T17:06:53.219Z,96435.21
2023-02-11T17:09:27.111Z,96437.30
2023-02-11T17:11:56.279Z,96429.84
2023-02-11T17:14:24.501Z,96422.90
2023-02-11T17:16:52.578Z,96412.85
2023-02-11T17:19:21.840Z,96408.23
2023-02-11T17:21:51.301Z,96406.79
2023-02-11T17:24:19.793Z,96395.00
2023-02-11T17:26:48.779Z,96398.70
2023-02-11T17:29:18.543Z,96399.31
2023-02-11T17:31:46.949Z,96403.35
2023-02-11T17:34:15.095Z,96411.47
2023-02-11T17:36:43.087Z,96402.81
2023-02-11T17:39:11.527Z,96401.71
2023-02-11T17:41:40.037Z,96404.98
2023-02-11T17:44:08.703Z,96399.17
2023-02-11T17:46:36.635Z,96403.02
2023-02-11T17:49:04.652Z,96409.80
2023-02-11T17:51:34.152Z,96402.35
2023-02-11T17:54:03.227Z,96414.52
2023-02-11T17:56:35.345Z,96420.82
2023-02-11T17:59:04.034Z,96424.39
2023-02-11T18:01:33.373Z,96423.29
2023-02-11T18:04:01.898Z,96421.73
2023-02-11T18:06:29.997Z,96403.50
2023-02-11T18:08:59.836Z,96392.55
2023-02-11T18:11:30.494Z,96405.09
2023-02-11T18:13:59.349Z,96414.41
2023-02-11T18:16:29.414Z,96416.59
2023-02-11T18:18:58.432Z,96415.53
2023-02-11T18:21:26.562Z,96421.54
2023-02-11T18:23:54.508Z,96420.21
2023-02-11T18:26:26.060Z,96421.29
2023-02-11T18:28:55.395Z,96430.46
2023-02-11T18:31:24.299Z,96425.20
2023-02-11T18:33:53.409Z,96411.16
2023-02-11T18:36:21.879Z,96409.48
2023-02-11T18:38:51.838Z,96417.39
2023-02-11T18:41:20.536Z,96416.77
2023-02-11T18:43:48.589Z,96410.48
2023-02-11T18:46:16.766Z,96411.13
2023-02-11T18:48:47.735Z,96411.61
2023-02-11T18:51:18.490Z,96408.27
2023-02-11T18:53:46.984Z,96392.20
2023-02-11T18:56:16.772Z,96394.23
2023-02-11T18:58:44.759Z,96406.73
2023-02-11T19:01:17.250Z,96402.56
2023-02-11T19:03:45.718Z,96397.63
2023-02-11T19:06:18.295Z,96390.29
2023-02-11T19:08:46.888Z,96388.77
2023-02-11T19:11:17.380Z,96389.70
2023-02-11T19:13:47.808Z,96397.61
2023-02-11T19:16:20.071Z,96388.59
2023-02-11T19:18:48.011Z,96393.40
2023-02-11T19:21:15.980Z,96396.15
2023-02-11T19:23:44.019Z,96395.67
2023-02-11T19:26:11.913Z,96396.63
2023-02-11T19:28:39.827Z,96396.09
2023-02-11T19:31:09.099Z,96396.52
2023-02-11T19:33:37.114Z,96391.91
2023-02-11T19:36:06.859Z,96389.30
2023-02-11T19:38:35.078Z,96382.17
2023-02-11T19:41:03.117Z,96379.83
2023-02-11T19:43:31.145Z,96379.02
2023-02-11T19:46:01.214Z,96378.01
2023-02-11T19:48:29.644Z,96381.67
2023-02-11T19:50:57.750Z,96382.52
2023-02-11T19:53:25.797Z,96382.77
2023-02-11T19:55:53.975Z,96388.92
2023-02-11T19:58:22.267Z,96383.42
2023-02-11T20:00:50.549Z,96385.09
2023-02-11T20:03:18.844Z,96385.72
2023-02-11T20:05:48.104Z,96382.09
2023-02-11T20:08:17.247Z,96378.83
2023-02-11T20:10:45.125Z,96379.94
2023-02-11T20:13:13.580Z,96371.38
2023-02-11T20:15:41.504Z,96372.22
2023-02-11T20:18:09.858Z,96369.67
2023-02-11T20:20:38.547Z,96366.39
2023-02-11T20:23:06.406Z,96355.10
2023-02-11T20:25:34.283Z,96355.10
2023-02-11T20:28:02.177Z,96352.75
2023-02-11T20:30:30.460Z,96339.45
2023-02-11T20:32:58.738Z,96337.67
2023-02-11T20:35:26.715Z,96325.05
2023-02-11T20:37:54.696Z,96315.35
2023-02-11T20:40:22.568Z,96311.91
2023-02-11T20:42:50.546Z,96305.95
2023-02-11T20:45:18.514Z,96309.41
2023-02-11T20:47:46.497Z,96307.95
2023-02-11T20:50:14.341Z,96308.67
2023-02-11T20:52:42.238Z,96313.85
2023-02-11T20:55:10.330Z,96321.34
2023-02-11T20:57:38.709Z,96319.45
2023-02-11T21:00:07.005Z,96316.23
2023-02-11T21:02:34.930Z,96305.40
2023-02-11T21:05:03.055Z,96302.58
2023-02-11T21:07:31.635Z,96300.49
2023-02-11T21:09:59.616Z,96304.95
2023-02-11T21:12:27.467Z,96302.38
2023-02-11T21:14:57.308Z,96305.44
2023-02-11T21:17:28.227Z,96303.77
2023-02-11T21:19:56.234Z,96294.27
2023-02-11T21:22:24.419Z,96289.48
2023-02-11T21:24:52.366Z,96284.05
2023-02-11T21:27:20.268Z,96285.64
2023-02-11T21:29:54.083Z,96286.14
2023-02-11T21:32:22.776Z,96299.02
2023-02-11T21:34:50.649Z,96295.52
2023-02-11T21:37:18.697Z,96290.77
2023-02-11T21:39:46.814Z,96286.55
2023-02-11T21:42:14.794Z,96282.07
2023-02-11T21:44:42.768Z,96279.88
2023-02-11T21:47:10.738Z,96288.39
2023-02-11T21:49:38.743Z,96288.64
2023-02-11T21:52:06.908Z,96276.62
2023-02-11T21:54:34.884Z,96275.61
2023-02-11T21:57:03.303Z,96280.06
2023-02-11T21:59:32.060Z,96280.63
2023-02-11T22:02:00.526Z,96281.65
2023-02-11T22:04:28.639Z,96279.06
2023-02-11T22:06:59.642Z,96277.44
2023-02-11T22:09:27.657Z,96279.75
2023-02-11T22:11:55.816Z,96280.27
2023-02-11T22:14:23.812Z,96283.23
2023-02-11T22:16:51.757Z,96285.83
2023-02-11T22:19:19.767Z,96288.23
2023-02-11T22:21:47.747Z,96281.49
2023-02-11T22:24:15.985Z,96285.29
2023-02-11T22:26:44.312Z,96280.48
2023-02-11T22:29:12.590Z,96278.72
2023-02-11T22:31:40.722Z,96284.65
2023-02-11T22:34:08.651Z,96285.14
2023-02-11T22:36:38.573Z,96284.65
2023-02-11T22:39:08.312Z,96284.77
2023-02-11T22:41:38.524Z,96288.77
2023-02-11T22:44:06.493Z,96292.55
2023-02-11T22:46:34.658Z,96293.02
2023-02-11T22:49:02.964Z,96286.83
2023-02-11T22:51:31.039Z,96289.47
2023-02-11T22:54:03.007Z,96292.81
2023-02-11T22:56:32.113Z,96287.16
2023-02-11T22:59:00.929Z,96287.36
2023-02-11T23:01:29.655Z,96296.46
2023-02-11T23:03:59.591Z,96292.89
2023-02-11T23:06:27.820Z,96288.61
2023-02-11T23:08:55.881Z,96286.86
2023-02-11T23:11:25.294Z,96281.33
2023-02-11T23:13:53.599Z,96283.57
2023-02-11T23:16:24.414Z,96279.37
2023-02-11T23:18:52.511Z,96283.05
2023-02-11T23:21:22.532Z,96284.58
2023-02-11T23:23:54.496Z,96287.38
2023-02-11T23:26:22.475Z,96287.27
2023-02-11T23:28:50.375Z,96287.48
2023-02-11T23:31:29.649Z,96285.52
2023-02-11T23:33:57.662Z,96286.13
2023-02-11T23:36:25.754Z,96287.34
2023-02-11T23:38:53.743Z,96285.25
2023-02-11T23:41:22.123Z,96280.11
2023-02-11T23:43:54.451Z,96283.66
2023-02-11T23:46:23.109Z,96285.41
2023-02-11T23:48:51.288Z,96285.83
2023-02-11T23:51:19.265Z,96276.84
2023-02-11T23:53:49.430Z,96277.91
2023-02-11T23:56:18.988Z,96279.78
2023-02-11T23:58:50.936Z,96280.59
